sensor_id;sensor_type;location;lat;lon;timestamp;pressure;altitude;pressure_sealevel;temperature;humidity
21234;BME280;10774;42.178;26.578;2022-08-21T00:00:20;99301.44;;;24.46;80.72
21234;BME280;10774;42.178;26.578;2022-08-21T00:02:53;99310.53;;;24.18;81.41
21234;BME280;10774;42.178;26.578;2022-08-21T00:05:20;99308.66;;;24.54;79.74
21234;BME280;10774;42.178;26.578;2022-08-21T00:07:46;99300.03;;;24.22;81.01
21234;BME280;10774;42.178;26.578;2022-08-21T00:10:11;99301.09;;;23.93;82.04
21234;BME280;10774;42.178;26.578;2022-08-21T00:12:37;99311.41;;;23.91;82.75
21234;BME280;10774;42.178;26.578;2022-08-21T00:15:04;99308.56;;;24.06;82.20
21234;BME280;10774;42.178;26.578;2022-08-21T00:17:30;99299.66;;;23.97;82.98
21234;BME280;10774;42.178;26.578;2022-08-21T00:19:56;99307.03;;;24.31;81.27
21234;BME280;10774;42.178;26.578;2022-08-21T00:22:21;99300.63;;;24.17;81.22
21234;BME280;10774;42.178;26.578;2022-08-21T00:24:46;99308.47;;;24.20;81.21
21234;BME280;10774;42.178;26.578;2022-08-21T00:27:12;99293.88;;;24.20;80.71
21234;BME280;10774;42.178;26.578;2022-08-21T00:29:37;99299.78;;;24.17;81.21
21234;BME280;10774;42.178;26.578;2022-08-21T00:32:04;99295.28;;;24.09;82.44
21234;BME280;10774;42.178;26.578;2022-08-21T00:34:29;99295.22;;;23.96;83.68
21234;BME280;10774;42.178;26.578;2022-08-21T00:36:55;99268.78;;;23.60;85.20
21234;BME280;10774;42.178;26.578;2022-08-21T00:39:20;99285.19;;;23.82;84.73
21234;BME280;10774;42.178;26.578;2022-08-21T00:41:46;99275.91;;;22.90;90.81
21234;BME280;10774;42.178;26.578;2022-08-21T00:44:13;99274.44;;;23.31;89.37
21234;BME280;10774;42.178;26.578;2022-08-21T00:46:40;99266.53;;;23.64;87.15
21234;BME280;10774;42.178;26.578;2022-08-21T00:49:06;99275.53;;;23.86;86.49
21234;BME280;10774;42.178;26.578;2022-08-21T00:51:38;99271.19;;;23.98;85.70
21234;BME280;10774;42.178;26.578;2022-08-21T00:54:06;99271.28;;;24.11;84.62
21234;BME280;10774;42.178;26.578;2022-08-21T00:56:32;99272.31;;;24.10;84.71
21234;BME280;10774;42.178;26.578;2022-08-21T00:58:58;99270.91;;;23.37;89.35
21234;BME280;10774;42.178;26.578;2022-08-21T01:01:25;99272.03;;;22.85;94.11
21234;BME280;10774;42.178;26.578;2022-08-21T01:03:51;99264.66;;;23.21;92.39
21234;BME280;10774;42.178;26.578;2022-08-21T01:06:17;99258.56;;;23.47;90.53
21234;BME280;10774;42.178;26.578;2022-08-21T01:08:43;99280.25;;;23.70;89.39
21234;BME280;10774;42.178;26.578;2022-08-21T01:11:09;99275.31;;;23.87;88.42
21234;BME280;10774;42.178;26.578;2022-08-21T01:13:37;99269.00;;;23.87;88.27
21234;BME280;10774;42.178;26.578;2022-08-21T01:16:08;99267.44;;;24.06;87.43
21234;BME280;10774;42.178;26.578;2022-08-21T01:18:34;99270.59;;;24.09;86.86
21234;BME280;10774;42.178;26.578;2022-08-21T01:21:03;99262.63;;;24.14;86.23
21234;BME280;10774;42.178;26.578;2022-08-21T01:23:28;99271.81;;;24.35;85.93
21234;BME280;10774;42.178;26.578;2022-08-21T01:25:54;99260.84;;;24.35;85.28
21234;BME280;10774;42.178;26.578;2022-08-21T01:28:22;99262.06;;;24.25;86.37
21234;BME280;10774;42.178;26.578;2022-08-21T01:30:48;99257.63;;;24.24;85.73
21234;BME280;10774;42.178;26.578;2022-08-21T01:33:18;99261.28;;;24.04;86.46
21234;BME280;10774;42.178;26.578;2022-08-21T01:35:45;99255.88;;;23.82;87.38
21234;BME280;10774;42.178;26.578;2022-08-21T01:38:10;99259.16;;;23.64;88.56
21234;BME280;10774;42.178;26.578;2022-08-21T01:40:36;99256.72;;;23.55;88.95
21234;BME280;10774;42.178;26.578;2022-08-21T01:43:02;99261.19;;;23.84;87.65
21234;BME280;10774;42.178;26.578;2022-08-21T01:45:28;99252.66;;;24.00;86.67
21234;BME280;10774;42.178;26.578;2022-08-21T01:47:53;99259.34;;;23.91;87.24
21234;BME280;10774;42.178;26.578;2022-08-21T01:50:19;99254.56;;;23.71;88.02
21234;BME280;10774;42.178;26.578;2022-08-21T01:52:46;99248.97;;;23.58;87.75
21234;BME280;10774;42.178;26.578;2022-08-21T01:55:17;99254.81;;;23.55;86.92
21234;BME280;10774;42.178;26.578;2022-08-21T01:57:43;99259.00;;;23.51;85.35
21234;BME280;10774;42.178;26.578;2022-08-21T02:00:12;99258.50;;;23.19;82.78
21234;BME280;10774;42.178;26.578;2022-08-21T02:02:39;99251.84;;;23.29;81.30
21234;BME280;10774;42.178;26.578;2022-08-21T02:05:05;99248.09;;;23.08;80.05
21234;BME280;10774;42.178;26.578;2022-08-21T02:07:43;99251.88;;;23.07;79.04
21234;BME280;10774;42.178;26.578;2022-08-21T02:10:11;99246.13;;;23.02;78.91
21234;BME280;10774;42.178;26.578;2022-08-21T02:12:37;99251.09;;;22.92;79.91
21234;BME280;10774;42.178;26.578;2022-08-21T02:15:04;99260.41;;;22.83;80.09
21234;BME280;10774;42.178;26.578;2022-08-21T02:17:59;99233.97;;;22.17;82.80
21234;BME280;10774;42.178;26.578;2022-08-21T02:20:29;99243.31;;;22.59;81.65
21234;BME280;10774;42.178;26.578;2022-08-21T02:22:55;99244.41;;;22.80;81.52
21234;BME280;10774;42.178;26.578;2022-08-21T02:25:22;99234.03;;;22.90;81.04
21234;BME280;10774;42.178;26.578;2022-08-21T02:27:48;99244.03;;;23.04;80.50
21234;BME280;10774;42.178;26.578;2022-08-21T02:30:22;99246.78;;;23.26;80.06
21234;BME280;10774;42.178;26.578;2022-08-21T02:32:48;99236.28;;;23.29;79.58
21234;BME280;10774;42.178;26.578;2022-08-21T02:35:13;99250.28;;;23.19;80.21
21234;BME280;10774;42.178;26.578;2022-08-21T02:37:47;99243.66;;;23.07;80.35
21234;BME280;10774;42.178;26.578;2022-08-21T02:40:13;99249.06;;;23.01;80.58
21234;BME280;10774;42.178;26.578;2022-08-21T02:42:39;99236.09;;;22.88;81.12
21234;BME280;10774;42.178;26.578;2022-08-21T02:45:06;99241.19;;;22.91;81.30
21234;BME280;10774;42.178;26.578;2022-08-21T02:47:32;99254.50;;;23.15;80.67
21234;BME280;10774;42.178;26.578;2022-08-21T02:49:57;99260.72;;;23.09;80.30
21234;BME280;10774;42.178;26.578;2022-08-21T02:52:23;99258.44;;;22.91;80.52
21234;BME280;10774;42.178;26.578;2022-08-21T02:54:49;99264.13;;;22.75;81.24
21234;BME280;10774;42.178;26.578;2022-08-21T02:57:15;99265.50;;;22.50;82.68
21234;BME280;10774;42.178;26.578;2022-08-21T02:59:41;99253.22;;;22.60;82.11
21234;BME280;10774;42.178;26.578;2022-08-21T03:02:07;99260.72;;;22.52;82.51
21234;BME280;10774;42.178;26.578;2022-08-21T03:04:32;99256.34;;;22.57;82.51
21234;BME280;10774;42.178;26.578;2022-08-21T03:06:58;99260.97;;;22.57;82.99
21234;BME280;10774;42.178;26.578;2022-08-21T03:09:24;99267.88;;;22.38;83.87
21234;BME280;10774;42.178;26.578;2022-08-21T03:11:50;99259.69;;;22.38;83.75
21234;BME280;10774;42.178;26.578;2022-08-21T03:14:17;99252.81;;;22.42;82.88
21234;BME280;10774;42.178;26.578;2022-08-21T03:16:43;99258.84;;;22.23;83.28
21234;BME280;10774;42.178;26.578;2022-08-21T03:19:08;99263.06;;;22.40;81.80
21234;BME280;10774;42.178;26.578;2022-08-21T03:21:33;99273.16;;;22.25;81.89
21234;BME280;10774;42.178;26.578;2022-08-21T03:23:59;99266.69;;;22.26;82.21
21234;BME280;10774;42.178;26.578;2022-08-21T03:26:24;99275.91;;;22.39;82.17
21234;BME280;10774;42.178;26.578;2022-08-21T03:28:50;99269.03;;;22.29;82.44
21234;BME280;10774;42.178;26.578;2022-08-21T03:31:16;99251.84;;;22.35;81.52
21234;BME280;10774;42.178;26.578;2022-08-21T03:33:43;99278.91;;;22.44;81.39
21234;BME280;10774;42.178;26.578;2022-08-21T03:36:09;99272.72;;;22.36;81.51
21234;BME280;10774;42.178;26.578;2022-08-21T03:38:36;99277.75;;;22.54;81.28
21234;BME280;10774;42.178;26.578;2022-08-21T03:41:03;99270.44;;;22.76;80.23
21234;BME280;10774;42.178;26.578;2022-08-21T03:43:29;99273.78;;;22.56;80.79
21234;BME280;10774;42.178;26.578;2022-08-21T03:45:55;99263.81;;;21.89;84.17
21234;BME280;10774;42.178;26.578;2022-08-21T03:48:21;99288.44;;;22.04;83.92
21234;BME280;10774;42.178;26.578;2022-08-21T03:50:47;99280.88;;;22.06;83.79
21234;BME280;10774;42.178;26.578;2022-08-21T03:53:15;99284.22;;;22.16;82.83
21234;BME280;10774;42.178;26.578;2022-08-21T03:55:41;99310.59;;;22.39;81.98
21234;BME280;10774;42.178;26.578;2022-08-21T03:58:07;99312.97;;;22.12;83.01
21234;BME280;10774;42.178;26.578;2022-08-21T04:00:33;99295.88;;;22.40;81.47
21234;BME280;10774;42.178;26.578;2022-08-21T04:02:59;99303.59;;;22.51;80.98
21234;BME280;10774;42.178;26.578;2022-08-21T04:05:25;99312.13;;;22.78;79.80
21234;BME280;10774;42.178;26.578;2022-08-21T04:07:55;99312.06;;;22.56;80.38
21234;BME280;10774;42.178;26.578;2022-08-21T04:10:22;99302.75;;;22.06;82.67
21234;BME280;10774;42.178;26.578;2022-08-21T04:12:49;99305.25;;;22.31;82.18
21234;BME280;10774;42.178;26.578;2022-08-21T04:15:14;99325.19;;;22.46;81.85
21234;BME280;10774;42.178;26.578;2022-08-21T04:17:40;99322.47;;;22.46;81.78
21234;BME280;10774;42.178;26.578;2022-08-21T04:20:05;99317.94;;;22.53;81.59
21234;BME280;10774;42.178;26.578;2022-08-21T04:22:31;99308.97;;;22.59;81.21
21234;BME280;10774;42.178;26.578;2022-08-21T04:24:56;99318.91;;;22.82;80.27
21234;BME280;10774;42.178;26.578;2022-08-21T04:27:22;99337.41;;;23.31;78.18
21234;BME280;10774;42.178;26.578;2022-08-21T04:29:47;99336.63;;;23.58;75.80
21234;BME280;10774;42.178;26.578;2022-08-21T04:32:13;99338.28;;;23.74;74.56
21234;BME280;10774;42.178;26.578;2022-08-21T04:34:38;99328.25;;;23.45;75.51
21234;BME280;10774;42.178;26.578;2022-08-21T04:37:04;99317.38;;;23.30;75.99
21234;BME280;10774;42.178;26.578;2022-08-21T04:39:29;99314.25;;;23.33;75.65
21234;BME280;10774;42.178;26.578;2022-08-21T04:41:55;99327.06;;;23.69;74.71
21234;BME280;10774;42.178;26.578;2022-08-21T04:44:20;99325.06;;;23.84;74.05
21234;BME280;10774;42.178;26.578;2022-08-21T04:46:45;99323.13;;;24.06;72.76
21234;BME280;10774;42.178;26.578;2022-08-21T04:49:11;99323.63;;;24.16;72.32
21234;BME280;10774;42.178;26.578;2022-08-21T04:51:37;99335.38;;;24.38;71.43
21234;BME280;10774;42.178;26.578;2022-08-21T04:54:17;99325.09;;;24.47;71.20
21234;BME280;10774;42.178;26.578;2022-08-21T04:56:56;99321.53;;;24.53;71.01
21234;BME280;10774;42.178;26.578;2022-08-21T04:59:28;99303.41;;;24.24;73.97
21234;BME280;10774;42.178;26.578;2022-08-21T05:01:56;99311.47;;;24.32;75.72
21234;BME280;10774;42.178;26.578;2022-08-21T05:04:25;99309.31;;;24.62;72.65
21234;BME280;10774;42.178;26.578;2022-08-21T05:06:55;99314.75;;;24.97;70.66
21234;BME280;10774;42.178;26.578;2022-08-21T05:09:23;99303.97;;;25.02;71.04
21234;BME280;10774;42.178;26.578;2022-08-21T05:11:49;99292.19;;;25.08;72.06
21234;BME280;10774;42.178;26.578;2022-08-21T05:14:17;99304.69;;;25.24;72.19
21234;BME280;10774;42.178;26.578;2022-08-21T05:16:42;99300.03;;;25.24;72.00
21234;BME280;10774;42.178;26.578;2022-08-21T05:19:09;99303.44;;;25.40;70.72
21234;BME280;10774;42.178;26.578;2022-08-21T05:21:38;99299.19;;;25.30;72.19
21234;BME280;10774;42.178;26.578;2022-08-21T05:24:04;99310.22;;;25.44;72.77
21234;BME280;10774;42.178;26.578;2022-08-21T05:26:30;99301.56;;;25.60;72.19
21234;BME280;10774;42.178;26.578;2022-08-21T05:28:55;99305.34;;;25.72;71.35
21234;BME280;10774;42.178;26.578;2022-08-21T05:31:21;99311.94;;;25.78;71.31
21234;BME280;10774;42.178;26.578;2022-08-21T05:33:47;99319.56;;;25.96;71.44
21234;BME280;10774;42.178;26.578;2022-08-21T05:36:13;99321.47;;;26.02;71.63
21234;BME280;10774;42.178;26.578;2022-08-21T05:38:38;99318.72;;;26.02;72.61
21234;BME280;10774;42.178;26.578;2022-08-21T05:41:04;99331.63;;;26.01;73.30
21234;BME280;10774;42.178;26.578;2022-08-21T05:43:29;99325.28;;;25.88;74.01
21234;BME280;10774;42.178;26.578;2022-08-21T05:45:55;99332.03;;;25.92;75.43
21234;BME280;10774;42.178;26.578;2022-08-21T05:48:23;99337.28;;;25.53;78.41
21234;BME280;10774;42.178;26.578;2022-08-21T05:50:50;99337.47;;;25.52;79.84
21234;BME280;10774;42.178;26.578;2022-08-21T05:53:18;99332.63;;;25.61;80.11
21234;BME280;10774;42.178;26.578;2022-08-21T05:55:45;99349.59;;;25.91;79.43
21234;BME280;10774;42.178;26.578;2022-08-21T05:58:15;99344.97;;;25.85;81.96
21234;BME280;10774;42.178;26.578;2022-08-21T06:00:41;99334.34;;;26.08;82.58
21234;BME280;10774;42.178;26.578;2022-08-21T06:03:11;99340.09;;;25.87;85.25
21234;BME280;10774;42.178;26.578;2022-08-21T06:05:37;99337.75;;;25.77;86.70
21234;BME280;10774;42.178;26.578;2022-08-21T06:08:03;99348.31;;;26.06;86.08
21234;BME280;10774;42.178;26.578;2022-08-21T06:10:29;99342.00;;;25.79;87.42
21234;BME280;10774;42.178;26.578;2022-08-21T06:12:54;99343.66;;;25.94;87.16
21234;BME280;10774;42.178;26.578;2022-08-21T06:15:20;99343.00;;;26.31;84.61
21234;BME280;10774;42.178;26.578;2022-08-21T06:17:46;99348.91;;;26.42;84.43
21234;BME280;10774;42.178;26.578;2022-08-21T06:20:11;99350.38;;;26.51;85.00
21234;BME280;10774;42.178;26.578;2022-08-21T06:22:36;99339.63;;;27.01;82.61
21234;BME280;10774;42.178;26.578;2022-08-21T06:25:02;99346.13;;;27.51;80.49
21234;BME280;10774;42.178;26.578;2022-08-21T06:27:27;99353.56;;;27.82;79.25
21234;BME280;10774;42.178;26.578;2022-08-21T06:29:53;99348.00;;;27.19;82.22
21234;BME280;10774;42.178;26.578;2022-08-21T06:32:18;99327.56;;;26.44;85.72
21234;BME280;10774;42.178;26.578;2022-08-21T06:34:44;99343.34;;;26.75;84.86
21234;BME280;10774;42.178;26.578;2022-08-21T06:37:09;99342.69;;;26.73;84.68
21234;BME280;10774;42.178;26.578;2022-08-21T06:39:35;99337.94;;;27.00;83.04
21234;BME280;10774;42.178;26.578;2022-08-21T06:42:00;99340.84;;;27.50;80.07
21234;BME280;10774;42.178;26.578;2022-08-21T06:44:26;99346.16;;;27.45;80.55
21234;BME280;10774;42.178;26.578;2022-08-21T06:46:51;99339.41;;;27.72;79.22
21234;BME280;10774;42.178;26.578;2022-08-21T06:49:17;99344.53;;;27.94;78.15
21234;BME280;10774;42.178;26.578;2022-08-21T06:51:42;99340.41;;;27.84;78.34
21234;BME280;10774;42.178;26.578;2022-08-21T06:54:08;99336.00;;;28.02;77.79
21234;BME280;10774;42.178;26.578;2022-08-21T06:56:34;99339.06;;;26.85;83.66
21234;BME280;10774;42.178;26.578;2022-08-21T06:59:02;99328.97;;;27.04;81.93
21234;BME280;10774;42.178;26.578;2022-08-21T07:01:28;99327.91;;;26.61;83.52
21234;BME280;10774;42.178;26.578;2022-08-21T07:03:53;99332.31;;;27.20;80.82
21234;BME280;10774;42.178;26.578;2022-08-21T07:06:19;99320.28;;;27.14;80.29
21234;BME280;10774;42.178;26.578;2022-08-21T07:08:44;99326.25;;;26.40;84.81
21234;BME280;10774;42.178;26.578;2022-08-21T07:11:20;99310.44;;;26.87;81.25
21234;BME280;10774;42.178;26.578;2022-08-21T07:13:46;99320.63;;;26.86;82.27
21234;BME280;10774;42.178;26.578;2022-08-21T07:16:11;99302.97;;;26.49;83.40
21234;BME280;10774;42.178;26.578;2022-08-21T07:18:37;99307.00;;;26.40;83.51
21234;BME280;10774;42.178;26.578;2022-08-21T07:21:05;99313.63;;;25.99;86.67
21234;BME280;10774;42.178;26.578;2022-08-21T07:23:34;99321.44;;;25.89;87.01
21234;BME280;10774;42.178;26.578;2022-08-21T07:26:02;99311.09;;;25.91;86.55
21234;BME280;10774;42.178;26.578;2022-08-21T07:28:29;99310.03;;;25.98;86.01
21234;BME280;10774;42.178;26.578;2022-08-21T07:30:56;99315.72;;;26.23;84.34
21234;BME280;10774;42.178;26.578;2022-08-21T07:33:23;99294.63;;;25.84;85.66
21234;BME280;10774;42.178;26.578;2022-08-21T07:35:48;99308.28;;;26.30;83.92
21234;BME280;10774;42.178;26.578;2022-08-21T07:38:14;99293.97;;;26.73;81.51
21234;BME280;10774;42.178;26.578;2022-08-21T07:40:39;99289.47;;;26.14;83.22
21234;BME280;10774;42.178;26.578;2022-08-21T07:43:05;99290.81;;;25.85;84.85
21234;BME280;10774;42.178;26.578;2022-08-21T07:45:30;99294.13;;;26.20;83.19
21234;BME280;10774;42.178;26.578;2022-08-21T07:47:56;99283.81;;;26.74;80.12
21234;BME280;10774;42.178;26.578;2022-08-21T07:50:21;99285.53;;;27.13;78.18
21234;BME280;10774;42.178;26.578;2022-08-21T07:52:47;99271.88;;;26.87;79.20
21234;BME280;10774;42.178;26.578;2022-08-21T07:55:17;99275.41;;;27.07;76.85
21234;BME280;10774;42.178;26.578;2022-08-21T07:57:43;99270.53;;;27.02;76.88
21234;BME280;10774;42.178;26.578;2022-08-21T08:00:12;99267.19;;;26.94;76.60
21234;BME280;10774;42.178;26.578;2022-08-21T08:02:38;99264.75;;;27.67;74.66
21234;BME280;10774;42.178;26.578;2022-08-21T08:05:08;99275.81;;;27.42;75.61
21234;BME280;10774;42.178;26.578;2022-08-21T08:07:34;99273.44;;;27.46;75.08
21234;BME280;10774;42.178;26.578;2022-08-21T08:10:00;99273.50;;;28.51;70.75
21234;BME280;10774;42.178;26.578;2022-08-21T08:12:26;99274.00;;;28.48;69.45
21234;BME280;10774;42.178;26.578;2022-08-21T08:14:58;99270.38;;;28.04;71.01
21234;BME280;10774;42.178;26.578;2022-08-21T08:17:25;99265.28;;;27.57;71.73
21234;BME280;10774;42.178;26.578;2022-08-21T08:19:51;99262.91;;;28.11;69.14
21234;BME280;10774;42.178;26.578;2022-08-21T08:22:19;99267.66;;;28.77;65.02
21234;BME280;10774;42.178;26.578;2022-08-21T08:24:49;99244.53;;;29.20;63.11
21234;BME280;10774;42.178;26.578;2022-08-21T08:27:16;99242.09;;;29.00;63.01
21234;BME280;10774;42.178;26.578;2022-08-21T08:29:42;99246.50;;;28.71;65.15
21234;BME280;10774;42.178;26.578;2022-08-21T08:32:08;99250.66;;;27.57;68.91
21234;BME280;10774;42.178;26.578;2022-08-21T08:34:37;99235.88;;;27.20;71.47
21234;BME280;10774;42.178;26.578;2022-08-21T08:37:04;99249.53;;;27.40;70.97
21234;BME280;10774;42.178;26.578;2022-08-21T08:39:31;99246.25;;;27.24;70.85
21234;BME280;10774;42.178;26.578;2022-08-21T08:44:30;99230.97;;;27.78;68.84
21234;BME280;10774;42.178;26.578;2022-08-21T08:46:56;99227.31;;;28.58;64.95
21234;BME280;10774;42.178;26.578;2022-08-21T08:49:23;99231.94;;;28.27;64.80
21234;BME280;10774;42.178;26.578;2022-08-21T08:54:38;99227.75;;;28.73;63.02
21234;BME280;10774;42.178;26.578;2022-08-21T08:57:10;99224.53;;;28.76;62.67
21234;BME280;10774;42.178;26.578;2022-08-21T08:59:44;99223.00;;;28.80;62.04
21234;BME280;10774;42.178;26.578;2022-08-21T09:02:14;99223.91;;;28.44;63.55
21234;BME280;10774;42.178;26.578;2022-08-21T09:04:40;99209.88;;;28.27;63.44
21234;BME280;10774;42.178;26.578;2022-08-21T09:10:04;99200.09;;;28.91;59.48
21234;BME280;10774;42.178;26.578;2022-08-21T09:12:56;99200.78;;;28.87;59.50
21234;BME280;10774;42.178;26.578;2022-08-21T09:18:17;99201.00;;;29.04;59.06
21234;BME280;10774;42.178;26.578;2022-08-21T09:26:17;99180.44;;;29.65;54.67
21234;BME280;10774;42.178;26.578;2022-08-21T09:28:43;99187.06;;;29.64;54.91
21234;BME280;10774;42.178;26.578;2022-08-21T09:31:29;99180.41;;;29.88;52.85
21234;BME280;10774;42.178;26.578;2022-08-21T09:34:06;99188.22;;;30.03;52.59
21234;BME280;10774;42.178;26.578;2022-08-21T09:36:44;99179.66;;;30.28;51.59
21234;BME280;10774;42.178;26.578;2022-08-21T09:39:11;99173.59;;;30.31;51.19
21234;BME280;10774;42.178;26.578;2022-08-21T09:41:38;99160.97;;;30.64;50.20
21234;BME280;10774;42.178;26.578;2022-08-21T09:44:06;99169.88;;;30.26;51.16
21234;BME280;10774;42.178;26.578;2022-08-21T09:46:33;99154.53;;;30.18;51.82
21234;BME280;10774;42.178;26.578;2022-08-21T09:49:02;99174.63;;;30.02;51.87
21234;BME280;10774;42.178;26.578;2022-08-21T09:51:31;99163.41;;;30.08;52.23
21234;BME280;10774;42.178;26.578;2022-08-21T09:54:14;99164.56;;;30.93;51.74
21234;BME280;10774;42.178;26.578;2022-08-21T09:56:57;99163.00;;;31.14;48.95
21234;BME280;10774;42.178;26.578;2022-08-21T09:59:43;99152.56;;;31.04;48.39
21234;BME280;10774;42.178;26.578;2022-08-21T10:02:30;99144.78;;;31.18;49.55
21234;BME280;10774;42.178;26.578;2022-08-21T10:05:18;99147.63;;;31.23;47.23
21234;BME280;10774;42.178;26.578;2022-08-21T10:07:44;99134.53;;;31.35;47.85
21234;BME280;10774;42.178;26.578;2022-08-21T10:10:17;99144.38;;;31.26;47.69
21234;BME280;10774;42.178;26.578;2022-08-21T10:31:55;99105.38;;;29.85;49.77
21234;BME280;10774;42.178;26.578;2022-08-21T10:37:31;99107.34;;;30.41;48.53
21234;BME280;10774;42.178;26.578;2022-08-21T10:42:32;99108.63;;;30.51;46.95
21234;BME280;10774;42.178;26.578;2022-08-21T10:47:35;99090.94;;;30.80;46.54
21234;BME280;10774;42.178;26.578;2022-08-21T10:53:43;99102.66;;;30.42;48.32
21234;BME280;10774;42.178;26.578;2022-08-21T10:56:19;99096.72;;;30.10;49.31
21234;BME280;10774;42.178;26.578;2022-08-21T10:58:56;99089.53;;;30.09;48.47
21234;BME280;10774;42.178;26.578;2022-08-21T11:01:50;99083.88;;;30.04;49.10
21234;BME280;10774;42.178;26.578;2022-08-21T11:04:26;99073.16;;;30.19;48.05
21234;BME280;10774;42.178;26.578;2022-08-21T11:07:32;99078.28;;;30.56;48.62
21234;BME280;10774;42.178;26.578;2022-08-21T11:10:23;99082.53;;;30.46;47.40
21234;BME280;10774;42.178;26.578;2022-08-21T11:12:56;99068.47;;;30.65;47.31
21234;BME280;10774;42.178;26.578;2022-08-21T11:15:26;99081.09;;;30.89;47.00
21234;BME280;10774;42.178;26.578;2022-08-21T11:18:01;99065.81;;;30.70;46.91
21234;BME280;10774;42.178;26.578;2022-08-21T11:20:46;99059.28;;;30.76;45.77
21234;BME280;10774;42.178;26.578;2022-08-21T11:23:23;99059.25;;;31.65;44.69
21234;BME280;10774;42.178;26.578;2022-08-21T11:25:58;99055.56;;;31.38;44.88
21234;BME280;10774;42.178;26.578;2022-08-21T11:28:33;99049.91;;;32.15;42.88
21234;BME280;10774;42.178;26.578;2022-08-21T11:37:04;99025.78;;;31.94;43.14
21234;BME280;10774;42.178;26.578;2022-08-21T11:42:24;99043.06;;;32.50;42.16
21234;BME280;10774;42.178;26.578;2022-08-21T11:47:29;99031.56;;;33.00;41.53
21234;BME280;10774;42.178;26.578;2022-08-21T11:50:16;99028.34;;;32.22;42.89
21234;BME280;10774;42.178;26.578;2022-08-21T11:52:46;99016.59;;;32.74;41.51
21234;BME280;10774;42.178;26.578;2022-08-21T11:55:26;99016.56;;;31.88;43.46
21234;BME280;10774;42.178;26.578;2022-08-21T11:58:03;99015.72;;;31.88;43.80
21234;BME280;10774;42.178;26.578;2022-08-21T12:00:42;99017.13;;;32.39;43.55
21234;BME280;10774;42.178;26.578;2022-08-21T12:05:55;99015.63;;;32.59;42.22
21234;BME280;10774;42.178;26.578;2022-08-21T12:08:31;99005.47;;;32.69;42.41
21234;BME280;10774;42.178;26.578;2022-08-21T12:13:55;98983.25;;;32.42;41.43
21234;BME280;10774;42.178;26.578;2022-08-21T12:19:28;98985.75;;;32.71;41.26
21234;BME280;10774;42.178;26.578;2022-08-21T12:24:39;98978.66;;;32.58;41.99
21234;BME280;10774;42.178;26.578;2022-08-21T12:27:21;98975.53;;;32.17;42.44
21234;BME280;10774;42.178;26.578;2022-08-21T12:30:03;98961.69;;;32.49;41.69
21234;BME280;10774;42.178;26.578;2022-08-21T12:32:41;98965.66;;;32.64;42.02
21234;BME280;10774;42.178;26.578;2022-08-21T12:35:14;98969.75;;;32.88;42.54
21234;BME280;10774;42.178;26.578;2022-08-21T12:37:43;98973.09;;;32.26;42.90
21234;BME280;10774;42.178;26.578;2022-08-21T12:40:19;98960.00;;;32.21;43.51
21234;BME280;10774;42.178;26.578;2022-08-21T12:42:49;98968.75;;;31.81;44.72
21234;BME280;10774;42.178;26.578;2022-08-21T12:45:32;98962.47;;;31.69;44.32
21234;BME280;10774;42.178;26.578;2022-08-21T12:50:46;98953.91;;;31.70;44.51
21234;BME280;10774;42.178;26.578;2022-08-21T12:55:49;98956.44;;;31.28;44.94
21234;BME280;10774;42.178;26.578;2022-08-21T12:58:23;98960.63;;;31.14;45.35
21234;BME280;10774;42.178;26.578;2022-08-21T13:00:58;98948.69;;;30.91;45.73
21234;BME280;10774;42.178;26.578;2022-08-21T13:03:25;98962.22;;;30.71;46.32
21234;BME280;10774;42.178;26.578;2022-08-21T13:05:51;98965.72;;;30.50;47.18
21234;BME280;10774;42.178;26.578;2022-08-21T13:08:19;98972.69;;;30.69;47.37
21234;BME280;10774;42.178;26.578;2022-08-21T13:10:47;98965.81;;;30.55;46.56
21234;BME280;10774;42.178;26.578;2022-08-21T13:13:22;98969.41;;;30.55;47.40
21234;BME280;10774;42.178;26.578;2022-08-21T13:15:48;98959.16;;;30.22;47.50
21234;BME280;10774;42.178;26.578;2022-08-21T13:18:23;98959.66;;;30.53;48.33
21234;BME280;10774;42.178;26.578;2022-08-21T13:20:50;98965.72;;;30.50;49.43
21234;BME280;10774;42.178;26.578;2022-08-21T13:23:27;98971.94;;;30.40;51.40
21234;BME280;10774;42.178;26.578;2022-08-21T13:25:53;98977.28;;;30.46;51.77
21234;BME280;10774;42.178;26.578;2022-08-21T13:28:18;98977.72;;;30.38;52.05
21234;BME280;10774;42.178;26.578;2022-08-21T13:30:53;98990.84;;;29.86;53.61
21234;BME280;10774;42.178;26.578;2022-08-21T13:33:22;98976.53;;;29.25;56.20
21234;BME280;10774;42.178;26.578;2022-08-21T13:38:25;98988.44;;;29.26;57.26
21234;BME280;10774;42.178;26.578;2022-08-21T13:43:35;98995.56;;;29.22;56.87
21234;BME280;10774;42.178;26.578;2022-08-21T13:46:06;99013.69;;;29.29;56.08
21234;BME280;10774;42.178;26.578;2022-08-21T13:48:34;98998.19;;;29.05;56.99
21234;BME280;10774;42.178;26.578;2022-08-21T13:51:00;98985.47;;;29.67;54.64
21234;BME280;10774;42.178;26.578;2022-08-21T13:54:13;98997.13;;;29.17;55.90
21234;BME280;10774;42.178;26.578;2022-08-21T13:56:30;98992.16;;;29.31;55.80
21234;BME280;10774;42.178;26.578;2022-08-21T13:58:57;98982.91;;;29.37;55.58
21234;BME280;10774;42.178;26.578;2022-08-21T14:01:49;98983.28;;;29.29;56.16
21234;BME280;10774;42.178;26.578;2022-08-21T14:04:23;98974.41;;;29.04;57.05
21234;BME280;10774;42.178;26.578;2022-08-21T14:06:50;98965.34;;;29.55;55.51
21234;BME280;10774;42.178;26.578;2022-08-21T14:11:56;98973.69;;;30.01;54.54
21234;BME280;10774;42.178;26.578;2022-08-21T14:14:27;98980.63;;;30.15;54.03
21234;BME280;10774;42.178;26.578;2022-08-21T14:19:44;98975.72;;;31.01;50.96
21234;BME280;10774;42.178;26.578;2022-08-21T14:25:03;98984.38;;;30.88;49.19
21234;BME280;10774;42.178;26.578;2022-08-21T14:27:32;98982.66;;;31.04;48.74